Time;durP1;ratioP1;P1;durP2;ratioP2;P2;SDS_P1;SDS_P2;PMS_P1;PMS_P2;Temp;Humidity;BMP_temperature;BMP_pressure;BME280_temperature;BME280_humidity;BME280_pressure;Samples;Min_cycle;Max_cycle;Signal;HPM_P1;HPM_P2
2021/11/07 00:04:36;;;;;;;9.70;3.28;;;;;;;;;;5032880;28;20028;-81
2021/11/07 00:09:36;;;;;;;11.98;3.33;;;;;;;;;;5032963;28;20026;-81
2021/11/07 00:12:12;;;;;;;11.10;3.42;;;;;;;;;;5031531;28;20028;-81
2021/11/07 00:14:38;;;;;;;12.00;3.35;;;;;;;;;;5032589;28;20026;-81
2021/11/07 00:17:03;;;;;;;5.78;3.05;;;;;;;;;;5032805;28;20036;-81
2021/11/07 00:19:35;;;;;;;11.73;2.88;;;;;;;;;;5031173;28;20025;-81
2021/11/07 00:22:28;;;;;;;;;;;;;;;;;;5031814;28;20021;-81
2021/11/07 00:24:54;;;;;;;10.75;3.55;;;;;;;;;;5031992;28;19909;-81
2021/11/07 00:27:36;;;;;;;8.95;4.05;;;;;;;;;;5064561;28;20112;-81
2021/11/07 00:37:38;;;;;;;11.35;4.60;;;;;;;;;;5032471;28;20018;-81
2021/11/07 00:43:01;;;;;;;10.50;5.18;;;;;;;;;;5032805;28;20045;-81
2021/11/07 00:45:25;;;;;;;11.35;6.10;;;;;;;;;;5031855;28;20036;-81
2021/11/07 00:51:14;;;;;;;10.68;5.38;;;;;;;;;;5032548;28;20037;-82
2021/11/07 00:53:45;;;;;;;11.75;5.10;;;;;;;;;;5029051;28;20026;-82
2021/11/07 00:56:21;;;;;;;11.20;5.43;;;;;;;;;;5026187;28;20052;-81
2021/11/07 01:01:20;;;;;;;15.27;5.38;;;;;;;;;;5031054;28;20030;-81
2021/11/07 01:03:45;;;;;;;9.63;4.72;;;;;;;;;;5068037;28;20112;-81
2021/11/07 01:06:10;;;;;;;10.80;5.27;;;;;;;;;;5034617;28;20056;-82
2021/11/07 01:08:36;;;;;;;7.38;4.47;;;;;;;;;;5068021;28;20483;-81
2021/11/07 01:11:02;;;;;;;11.27;5.10;;;;;;;;;;5034612;28;20021;-81
2021/11/07 01:13:28;;;;;;;9.90;5.13;;;;;;;;;;5067928;28;20025;-82
2021/11/07 01:15:53;;;;;;;12.23;5.50;;;;;;;;;;5062110;28;20021;-81
2021/11/07 01:18:18;;;;;;;15.23;5.63;;;;;;;;;;5067935;28;20532;-81
2021/11/07 01:20:43;;;;;;;13.93;5.63;;;;;;;;;;5067771;28;20381;-81
2021/11/07 01:25:41;;;;;;;9.73;5.37;;;;;;;;;;5035998;28;20461;-82
2021/11/07 01:28:07;;;;;;;12.15;5.65;;;;;;;;;;5035574;28;20022;-82
2021/11/07 01:30:38;;;;;;;8.53;4.43;;;;;;;;;;5035437;28;20044;-81
2021/11/07 01:33:07;;;;;;;8.93;4.68;;;;;;;;;;5034233;28;20021;-81
2021/11/07 01:40:36;;;;;;;10.32;5.30;;;;;;;;;;5035901;28;20029;-82
2021/11/07 01:43:01;;;;;;;12.85;5.65;;;;;;;;;;5060908;28;20029;-81
2021/11/07 01:45:30;;;;;;;11.00;5.32;;;;;;;;;;5067164;28;20408;-81
2021/11/07 01:48:04;;;;;;;10.63;5.35;;;;;;;;;;5067119;28;20420;-82
2021/11/07 01:50:33;;;;;;;15.90;6.10;;;;;;;;;;5033870;28;20136;-81
2021/11/07 01:53:05;;;;;;;9.82;5.25;;;;;;;;;;5067136;28;20025;-81
2021/11/07 01:55:31;;;;;;;9.50;5.40;;;;;;;;;;5035084;28;20034;-81
2021/11/07 01:57:56;;;;;;;8.57;4.97;;;;;;;;;;5066909;28;20021;-82
2021/11/07 02:00:23;;;;;;;9.07;4.88;;;;;;;;;;5033925;28;20025;-82
2021/11/07 02:02:49;;;;;;;12.85;5.28;;;;;;;;;;5034582;28;20022;-81
2021/11/07 02:05:14;;;;;;;11.18;5.38;;;;;;;;;;5033718;28;20017;-82
2021/11/07 02:07:39;;;;;;;8.25;4.47;;;;;;;;;;5033610;28;20021;-82
2021/11/07 02:10:06;;;;;;;10.13;5.47;;;;;;;;;;5066921;28;20067;-82
2021/11/07 02:12:31;;;;;;;8.30;5.03;;;;;;;;;;5033232;28;20026;-82
2021/11/07 02:14:57;;;;;;;10.18;5.43;;;;;;;;;;5049998;28;20428;-82
2021/11/07 02:17:22;;;;;;;10.85;5.72;;;;;;;;;;5033309;28;20465;-82
2021/11/07 02:19:48;;;;;;;8.93;5.07;;;;;;;;;;5026276;28;20057;-81
2021/11/07 02:22:14;;;;;;;9.48;4.88;;;;;;;;;;5065192;28;20025;-82
2021/11/07 02:24:41;;;;;;;7.85;4.50;;;;;;;;;;5066483;28;20025;-82
2021/11/07 02:27:06;;;;;;;7.82;4.95;;;;;;;;;;5066354;28;20022;-82
2021/11/07 02:29:33;;;;;;;11.02;4.97;;;;;;;;;;5033220;28;20017;-82
2021/11/07 02:31:58;;;;;;;10.10;5.38;;;;;;;;;;5032712;28;20100;-82
2021/11/07 02:34:24;;;;;;;9.90;5.55;;;;;;;;;;5034490;28;20499;-82
2021/11/07 02:36:50;;;;;;;13.35;5.65;;;;;;;;;;5032576;28;20021;-82
2021/11/07 02:39:16;;;;;;;9.90;5.90;;;;;;;;;;5032937;28;20385;-82
2021/11/07 02:41:42;;;;;;;7.97;4.70;;;;;;;;;;5033125;28;20448;-82
2021/11/07 02:44:07;;;;;;;10.77;6.10;;;;;;;;;;5032634;28;20083;-82
2021/11/07 02:46:32;;;;;;;10.50;5.55;;;;;;;;;;5034139;28;20382;-82
2021/11/07 02:48:59;;;;;;;10.30;5.93;;;;;;;;;;5032438;28;20061;-81
2021/11/07 02:51:24;;;;;;;8.57;5.00;;;;;;;;;;5032884;28;20036;-82
2021/11/07 02:53:50;;;;;;;12.85;6.22;;;;;;;;;;5032479;28;20018;-82
2021/11/07 02:56:15;;;;;;;9.55;6.13;;;;;;;;;;5033819;28;20021;-82
2021/11/07 02:58:41;;;;;;;9.68;5.55;;;;;;;;;;5032673;28;20116;-82
2021/11/07 03:01:06;;;;;;;10.63;5.57;;;;;;;;;;5032452;28;20025;-82
2021/11/07 03:03:31;;;;;;;9.95;5.68;;;;;;;;;;5032591;28;20025;-82
2021/11/07 03:06:00;;;;;;;10.07;6.20;;;;;;;;;;5032262;28;20028;-82
2021/11/07 03:08:25;;;;;;;9.75;6.32;;;;;;;;;;5057835;28;20044;-81
2021/11/07 03:10:51;;;;;;;11.93;6.63;;;;;;;;;;5065660;28;20013;-81
2021/11/07 03:13:17;;;;;;;9.32;6.50;;;;;;;;;;5065737;28;20025;-82
2021/11/07 03:15:42;;;;;;;12.85;6.75;;;;;;;;;;5032393;28;20428;-82
2021/11/07 03:18:09;;;;;;;11.52;6.18;;;;;;;;;;5032202;28;20057;-82
2021/11/07 03:20:34;;;;;;;9.80;5.65;;;;;;;;;;5032270;28;20037;-82
2021/11/07 03:23:00;;;;;;;10.20;6.22;;;;;;;;;;5032676;28;20049;-81
2021/11/07 03:25:26;;;;;;;10.07;5.70;;;;;;;;;;5065528;28;20791;-81
2021/11/07 03:27:51;;;;;;;12.23;6.93;;;;;;;;;;5033395;28;20369;-81
2021/11/07 03:31:05;;;;;;;8.57;5.13;;;;;;;;;;5064954;28;20447;-81
2021/11/07 03:33:29;;;;;;;11.00;6.63;;;;;;;;;;5024731;28;20030;-82
2021/11/07 03:35:56;;;;;;;9.45;6.10;;;;;;;;;;5033322;28;20053;-81
2021/11/07 03:38:23;;;;;;;13.50;6.03;;;;;;;;;;5031468;28;20033;-81
2021/11/07 03:40:48;;;;;;;12.43;5.78;;;;;;;;;;5031925;28;20021;-81
2021/11/07 03:43:13;;;;;;;9.07;5.88;;;;;;;;;;5031664;28;20045;-81
2021/11/07 03:45:39;;;;;;;7.45;5.47;;;;;;;;;;5031824;28;20056;-81
2021/11/07 03:48:04;;;;;;;8.35;5.00;;;;;;;;;;5031953;28;20025;-81
2021/11/07 03:50:30;;;;;;;9.32;5.25;;;;;;;;;;5031327;28;20021;-81
2021/11/07 03:52:56;;;;;;;7.72;4.88;;;;;;;;;;5032139;28;20017;-81
2021/11/07 03:55:21;;;;;;;9.10;4.63;;;;;;;;;;5031472;28;20385;-81
2021/11/07 03:57:46;;;;;;;7.18;4.75;;;;;;;;;;5031744;28;20025;-81
2021/11/07 04:00:14;;;;;;;9.63;4.30;;;;;;;;;;5031777;28;20074;-81
2021/11/07 04:02:39;;;;;;;12.60;5.18;;;;;;;;;;5032776;28;20021;-81
2021/11/07 04:05:07;;;;;;;11.55;5.38;;;;;;;;;;5031550;28;20025;-81
2021/11/07 04:07:32;;;;;;;7.50;5.45;;;;;;;;;;5031379;28;20029;-81
2021/11/07 04:09:57;;;;;;;9.35;5.13;;;;;;;;;;5033159;28;20024;-81
2021/11/07 04:12:22;;;;;;;7.65;5.60;;;;;;;;;;5031207;28;20033;-81
2021/11/07 04:14:48;;;;;;;7.95;5.45;;;;;;;;;;5032852;28;20022;-81
2021/11/07 04:17:13;;;;;;;7.93;5.72;;;;;;;;;;5032827;28;20029;-81
2021/11/07 04:19:38;;;;;;;11.35;5.05;;;;;;;;;;5031117;28;20473;-81
2021/11/07 04:22:07;;;;;;;9.25;5.13;;;;;;;;;;5031508;28;20469;-81
2021/11/07 04:24:32;;;;;;;10.07;6.50;;;;;;;;;;5030944;28;20017;-81
2021/11/07 04:26:57;;;;;;;10.60;6.88;;;;;;;;;;5031469;28;20366;-82
2021/11/07 04:29:23;;;;;;;9.30;5.45;;;;;;;;;;5030871;28;20017;-82
2021/11/07 04:31:48;;;;;;;10.15;6.35;;;;;;;;;;5031261;28;20108;-82
2021/11/07 04:34:13;;;;;;;7.80;5.70;;;;;;;;;;5032251;28;20031;-81
2021/11/07 04:36:39;;;;;;;9.05;6.00;;;;;;;;;;5034907;28;20424;-81
2021/11/07 04:39:04;;;;;;;11.85;5.88;;;;;;;;;;5035419;28;20055;-82
2021/11/07 04:41:29;;;;;;;11.05;5.90;;;;;;;;;;5035035;28;20017;-81
2021/11/07 04:43:54;;;;;;;9.95;5.82;;;;;;;;;;5036250;28;20017;-81
2021/11/07 04:46:20;;;;;;;10.45;6.22;;;;;;;;;;5035248;28;20026;-81
2021/11/07 04:48:46;;;;;;;9.80;5.55;;;;;;;;;;5034933;28;20065;-81
2021/11/07 04:51:11;;;;;;;10.27;5.03;;;;;;;;;;5035176;28;20018;-81
2021/11/07 04:53:37;;;;;;;11.45;6.03;;;;;;;;;;5034884;28;20029;-81
2021/11/07 04:56:03;;;;;;;9.15;5.35;;;;;;;;;;5035063;28;20029;-81
2021/11/07 04:58:28;;;;;;;11.23;5.80;;;;;;;;;;5036184;28;20365;-82
2021/11/07 05:00:53;;;;;;;10.10;5.97;;;;;;;;;;5034852;28;20033;-81
2021/11/07 05:03:18;;;;;;;11.68;5.75;;;;;;;;;;5034945;28;20025;-81
2021/11/07 05:05:44;;;;;;;9.90;5.78;;;;;;;;;;5034534;28;20025;-81
2021/11/07 05:08:10;;;;;;;9.90;5.72;;;;;;;;;;5034948;28;20028;-81
2021/11/07 05:10:35;;;;;;;11.23;5.68;;;;;;;;;;5034521;28;20017;-82
2021/11/07 05:13:01;;;;;;;12.82;5.68;;;;;;;;;;5035003;28;20021;-81
2021/11/07 05:15:26;;;;;;;9.55;5.50;;;;;;;;;;5067991;28;20041;-81
2021/11/07 05:17:51;;;;;;;14.15;4.95;;;;;;;;;;5035615;28;20017;-81
2021/11/07 05:20:16;;;;;;;9.23;4.95;;;;;;;;;;5035871;28;20526;-81
2021/11/07 05:22:42;;;;;;;9.57;5.57;;;;;;;;;;5034229;28;20022;-81
2021/11/07 05:25:09;;;;;;;12.68;5.75;;;;;;;;;;5034616;28;20106;-81
2021/11/07 05:27:34;;;;;;;13.93;5.85;;;;;;;;;;5035623;28;20148;-81
2021/11/07 05:30:00;;;;;;;11.75;6.00;;;;;;;;;;5067530;28;20480;-81
2021/11/07 05:32:25;;;;;;;7.13;4.95;;;;;;;;;;5067634;28;20312;-82
2021/11/07 05:34:51;;;;;;;10.15;4.85;;;;;;;;;;5034011;28;20033;-81
2021/11/07 05:37:16;;;;;;;9.13;5.47;;;;;;;;;;5067760;28;20075;-81
2021/11/07 05:39:41;;;;;;;8.30;4.97;;;;;;;;;;5034057;28;20029;-81
2021/11/07 05:42:06;;;;;;;14.52;5.47;;;;;;;;;;5035066;28;20025;-82
2021/11/07 05:44:32;;;;;;;13.35;5.20;;;;;;;;;;5034297;28;20484;-81
2021/11/07 05:46:57;;;;;;;14.55;6.65;;;;;;;;;;5066503;28;20025;-81
2021/11/07 05:49:23;;;;;;;9.63;5.68;;;;;;;;;;5034000;28;20022;-81
2021/11/07 05:51:49;;;;;;;13.52;6.07;;;;;;;;;;5034066;28;20025;-81
2021/11/07 05:54:14;;;;;;;11.43;5.90;;;;;;;;;;5067378;28;20025;-81
2021/11/07 05:56:39;;;;;;;11.32;6.45;;;;;;;;;;5033964;28;20044;-81
2021/11/07 05:59:05;;;;;;;10.35;5.35;;;;;;;;;;5033541;28;20032;-82
2021/11/07 06:01:30;;;;;;;11.27;5.75;;;;;;;;;;5067008;28;20030;-81
2021/11/07 06:03:56;;;;;;;11.45;6.55;;;;;;;;;;5034853;28;20028;-81
2021/11/07 06:06:21;;;;;;;13.18;6.03;;;;;;;;;;5033761;28;20445;-81
2021/11/07 06:08:46;;;;;;;13.05;6.32;;;;;;;;;;5033499;28;20021;-81
2021/11/07 06:11:12;;;;;;;14.10;6.32;;;;;;;;;;5034609;28;20029;-81
2021/11/07 06:13:37;;;;;;;12.10;6.93;;;;;;;;;;5035019;28;20462;-81
2021/11/07 06:16:02;;;;;;;11.43;6.03;;;;;;;;;;5033291;28;20112;-81
2021/11/07 06:18:28;;;;;;;11.27;6.75;;;;;;;;;;5033479;28;20527;-82
2021/11/07 06:20:55;;;;;;;9.93;6.45;;;;;;;;;;5033181;28;20025;-81
2021/11/07 06:23:20;;;;;;;12.65;6.80;;;;;;;;;;5033419;28;20040;-81
2021/11/07 06:25:45;;;;;;;16.83;6.85;;;;;;;;;;5033198;28;20112;-82
2021/11/07 06:28:11;;;;;;;12.45;6.50;;;;;;;;;;5034418;28;20021;-82
2021/11/07 06:30:36;;;;;;;12.02;6.70;;;;;;;;;;5033385;28;20464;-81
2021/11/07 06:33:02;;;;;;;17.48;6.70;;;;;;;;;;5033100;28;20063;-81
2021/11/07 06:35:27;;;;;;;12.52;6.47;;;;;;;;;;5026238;28;20461;-81
2021/11/07 06:37:53;;;;;;;15.18;6.93;;;;;;;;;;5034534;28;20025;-81
2021/11/07 06:40:18;;;;;;;10.68;7.07;;;;;;;;;;5032822;28;20026;-81
2021/11/07 06:42:43;;;;;;;16.80;7.72;;;;;;;;;;5032973;28;20538;-81
2021/11/07 06:45:10;;;;;;;15.10;6.90;;;;;;;;;;5034052;28;20025;-81
2021/11/07 06:47:35;;;;;;;13.23;6.82;;;;;;;;;;5033058;28;20083;-81
2021/11/07 06:50:01;;;;;;;13.20;5.93;;;;;;;;;;5034098;28;20373;-82
2021/11/07 06:52:26;;;;;;;17.10;6.35;;;;;;;;;;5034102;28;20420;-81
2021/11/07 06:54:53;;;;;;;13.15;6.15;;;;;;;;;;5032896;28;20546;-81
2021/11/07 06:57:18;;;;;;;12.48;6.53;;;;;;;;;;5031850;28;20048;-81
2021/11/07 06:59:43;;;;;;;13.10;6.68;;;;;;;;;;5033629;28;20025;-81
2021/11/07 07:02:08;;;;;;;14.13;6.00;;;;;;;;;;5032283;28;20435;-81
2021/11/07 07:04:34;;;;;;;21.48;6.90;;;;;;;;;;5032813;28;20457;-81
2021/11/07 07:06:59;;;;;;;12.63;6.35;;;;;;;;;;5032502;28;20060;-82
2021/11/07 07:09:30;;;;;;;18.70;6.35;;;;;;;;;;5032251;28;20033;-81
2021/11/07 07:12:08;;;;;;;12.98;5.38;;;;;;;;;;5032655;28;20385;-82
2021/11/07 07:14:48;;;;;;;15.98;5.50;;;;;;;;;;5032189;28;20028;-81
2021/11/07 07:25:15;;;;;;;12.98;5.63;;;;;;;;;;5033732;28;20018;-82
2021/11/07 07:35:46;;;;;;;12.75;5.30;;;;;;;;;;5033876;28;20503;-82
2021/11/07 07:38:13;;;;;;;17.70;5.95;;;;;;;;;;5031674;28;20025;-82
2021/11/07 07:40:38;;;;;;;15.40;5.55;;;;;;;;;;5065185;28;20448;-81
2021/11/07 07:43:03;;;;;;;13.25;4.35;;;;;;;;;;5031907;28;20052;-81
2021/11/07 07:45:30;;;;;;;13.60;6.00;;;;;;;;;;5064964;28;20100;-82
2021/11/07 07:47:56;;;;;;;10.95;5.25;;;;;;;;;;5031910;28;20465;-82
2021/11/07 07:50:22;;;;;;;15.35;4.93;;;;;;;;;;5031684;28;20063;-81
2021/11/07 07:52:47;;;;;;;14.00;4.93;;;;;;;;;;5031904;28;20104;-82
2021/11/07 07:55:13;;;;;;;13.73;4.85;;;;;;;;;;5032935;28;20027;-81
2021/11/07 07:57:39;;;;;;;13.85;4.47;;;;;;;;;;5032930;28;20032;-81
2021/11/07 08:00:06;;;;;;;13.68;5.15;;;;;;;;;;5031750;28;20087;-81
2021/11/07 08:02:31;;;;;;;11.57;5.03;;;;;;;;;;5031226;28;20079;-82
2021/11/07 08:04:57;;;;;;;12.85;5.25;;;;;;;;;;5031591;28;20469;-82
2021/11/07 08:07:23;;;;;;;14.57;4.70;;;;;;;;;;5032760;28;20705;-82
2021/11/07 08:09:48;;;;;;;15.80;4.65;;;;;;;;;;5031535;28;20083;-81
2021/11/07 08:12:13;;;;;;;13.20;4.28;;;;;;;;;;5031572;28;20033;-82
2021/11/07 08:14:39;;;;;;;13.73;4.20;;;;;;;;;;5031103;28;20461;-81
2021/11/07 08:17:04;;;;;;;16.25;4.70;;;;;;;;;;5031701;28;20025;-81
2021/11/07 08:19:30;;;;;;;8.75;3.75;;;;;;;;;;5064670;28;20116;-82
2021/11/07 08:21:56;;;;;;;12.82;4.53;;;;;;;;;;5031479;28;20028;-82
2021/11/07 08:24:21;;;;;;;19.20;4.78;;;;;;;;;;5031404;28;20389;-82
2021/11/07 08:26:47;;;;;;;17.95;4.63;;;;;;;;;;5064548;28;20022;-82
2021/11/07 08:29:14;;;;;;;17.42;4.57;;;;;;;;;;5031330;28;20022;-82
2021/11/07 08:31:40;;;;;;;21.58;4.25;;;;;;;;;;5032202;28;20396;-81
2021/11/07 08:34:07;;;;;;;17.90;4.65;;;;;;;;;;5032806;28;20034;-82
2021/11/07 08:39:35;;;;;;;14.50;3.58;;;;;;;;;;5033041;28;20026;-82
2021/11/07 09:05:26;;;;;;;21.80;3.15;;;;;;;;;;5032500;28;20060;-83
2021/11/07 09:10:33;;;;;;;22.13;2.55;;;;;;;;;;5031442;28;20453;-84
2021/11/07 09:12:59;;;;;;;18.45;3.00;;;;;;;;;;5063760;28;20068;-84
2021/11/07 09:15:25;;;;;;;20.40;2.90;;;;;;;;;;5032058;28;20428;-82
2021/11/07 09:17:51;;;;;;;21.42;3.30;;;;;;;;;;5031423;28;20078;-82
2021/11/07 09:20:26;;;;;;;24.15;3.05;;;;;;;;;;5030122;28;20112;-82
2021/11/07 09:22:56;;;;;;;22.38;2.88;;;;;;;;;;5033968;28;20022;-83
2021/11/07 09:25:28;;;;;;;23.33;2.80;;;;;;;;;;5035462;28;20413;-83
2021/11/07 09:28:00;;;;;;;12.43;2.17;;;;;;;;;;5067211;28;20022;-82
2021/11/07 09:30:36;;;;;;;;;;;;;;;;;;5030911;28;20464;-82
2021/11/07 09:35:42;;;;;;;13.23;3.03;;;;;;;;;;5032664;28;20105;-83
2021/11/07 09:40:46;;;;;;;17.25;2.72;;;;;;;;;;5035249;28;20107;-82
2021/11/07 09:43:36;;;;;;;13.68;2.05;;;;;;;;;;5034000;28;20079;-83
2021/11/07 09:48:32;;;;;;;18.77;2.42;;;;;;;;;;5034119;28;20108;-83
2021/11/07 09:50:57;;;;;;;12.77;2.35;;;;;;;;;;5064529;28;20378;-83
2021/11/07 09:53:23;;;;;;;18.92;2.90;;;;;;;;;;5033670;28;20025;-82
2021/11/07 09:55:49;;;;;;;13.48;2.70;;;;;;;;;;5034078;28;20021;-81
2021/11/07 09:58:15;;;;;;;22.38;2.88;;;;;;;;;;5033305;28;21254;-82
2021/11/07 10:00:43;;;;;;;17.98;1.75;;;;;;;;;;5033205;28;20024;-82
2021/11/07 10:03:10;;;;;;;16.08;1.77;;;;;;;;;;5032572;28;20029;-82
2021/11/07 10:05:40;;;;;;;7.28;0.82;;;;;;;;;;5032583;28;20091;-82
2021/11/07 10:08:08;;;;;;;14.20;1.55;;;;;;;;;;5032731;28;20026;-82
2021/11/07 10:10:38;;;;;;;8.63;0.65;;;;;;;;;;5031710;28;20021;-82
2021/11/07 10:13:04;;;;;;;14.73;1.63;;;;;;;;;;5066438;28;20025;-82
2021/11/07 10:15:41;;;;;;;17.15;1.50;;;;;;;;;;5033570;28;20116;-82
2021/11/07 10:18:09;;;;;;;16.33;1.73;;;;;;;;;;5032526;28;20416;-82
2021/11/07 10:20:42;;;;;;;10.55;2.17;;;;;;;;;;5034769;28;20094;-82
2021/11/07 10:23:22;;;;;;;8.55;1.17;;;;;;;;;;5032315;28;20357;-82
2021/11/07 10:25:55;;;;;;;7.72;1.67;;;;;;;;;;5034715;28;20017;-82
2021/11/07 10:28:24;;;;;;;21.58;1.95;;;;;;;;;;5033240;28;20461;-82
2021/11/07 10:31:02;;;;;;;7.28;1.00;;;;;;;;;;5033180;28;20028;-82
2021/11/07 10:39:17;;;;;;;11.48;1.33;;;;;;;;;;5029085;28;20296;-82
2021/11/07 10:44:23;;;;;;;21.48;3.45;;;;;;;;;;5034631;28;20097;-82
2021/11/07 10:52:30;;;;;;;15.27;1.83;;;;;;;;;;5034320;28;20040;-82
2021/11/07 10:54:56;;;;;;;7.95;1.30;;;;;;;;;;5032498;28;20110;-82
2021/11/07 10:57:23;;;;;;;7.40;1.20;;;;;;;;;;5032575;28;20032;-82
2021/11/07 11:00:08;;;;;;;13.98;1.92;;;;;;;;;;5034037;28;20021;-82
2021/11/07 11:02:37;;;;;;;25.90;2.38;;;;;;;;;;5032037;28;20240;-82
2021/11/07 11:05:04;;;;;;;16.67;1.75;;;;;;;;;;5032590;28;20083;-82
2021/11/07 11:07:30;;;;;;;5.43;0.90;;;;;;;;;;5033631;28;20032;-82
2021/11/07 11:10:14;;;;;;;6.45;0.98;;;;;;;;;;5032589;28;20017;-82
2021/11/07 11:13:16;;;;;;;11.02;1.73;;;;;;;;;;5032150;28;20021;-82
2021/11/07 11:29:11;;;;;;;11.35;1.42;;;;;;;;;;5033518;28;20017;-82
2021/11/07 11:31:44;;;;;;;9.88;1.92;;;;;;;;;;5031818;28;20089;-82
2021/11/07 11:34:13;;;;;;;12.82;1.95;;;;;;;;;;5030648;28;20029;-82
2021/11/07 11:36:47;;;;;;;11.23;1.42;;;;;;;;;;5031352;28;20108;-82
2021/11/07 11:39:22;;;;;;;14.38;1.77;;;;;;;;;;5031046;28;20032;-83
2021/11/07 11:41:57;;;;;;;15.75;1.88;;;;;;;;;;5032155;28;20025;-82
2021/11/07 11:44:23;;;;;;;10.27;2.10;;;;;;;;;;5028841;28;20028;-83
2021/11/07 11:47:19;;;;;;;10.10;1.52;;;;;;;;;;5027638;28;20108;-82
2021/11/07 11:49:58;;;;;;;8.32;1.23;;;;;;;;;;5032591;28;20110;-82
2021/11/07 11:52:35;;;;;;;17.48;2.08;;;;;;;;;;5063860;28;20099;-82
2021/11/07 11:55:14;;;;;;;15.50;2.08;;;;;;;;;;5065056;28;20500;-82
2021/11/07 12:05:49;;;;;;;12.75;1.38;;;;;;;;;;5032067;28;20024;-83
2021/11/07 12:08:24;;;;;;;20.83;1.50;;;;;;;;;;5033102;28;20018;-84
2021/11/07 12:11:01;;;;;;;11.77;1.13;;;;;;;;;;5031162;28;20660;-83
2021/11/07 12:13:42;;;;;;;7.53;1.40;;;;;;;;;;5031105;28;20033;-84
2021/11/07 12:16:14;;;;;;;19.92;1.83;;;;;;;;;;5031072;28;20472;-84
2021/11/07 12:18:59;;;;;;;9.40;1.33;;;;;;;;;;5030943;28;20075;-83
2021/11/07 12:21:25;;;;;;;5.45;0.80;;;;;;;;;;5025724;28;20056;-83
2021/11/07 12:24:05;;;;;;;8.82;1.55;;;;;;;;;;5030313;28;20420;-87
2021/11/07 12:26:30;;;;;;;10.38;1.23;;;;;;;;;;5026145;28;20079;-85
2021/11/07 12:28:58;;;;;;;14.57;1.75;;;;;;;;;;5064270;28;20457;-87
2021/11/07 12:31:24;;;;;;;15.15;2.38;;;;;;;;;;5032145;28;20022;-87
2021/11/07 12:33:55;;;;;;;14.63;2.00;;;;;;;;;;5031137;28;20109;-87
2021/11/07 12:36:38;;;;;;;20.63;1.92;;;;;;;;;;5031264;28;20017;-91
2021/11/07 12:42:06;;;;;;;8.00;0.82;;;;;;;;;;5032595;28;20113;-89
2021/11/07 12:44:32;;;;;;;11.98;1.48;;;;;;;;;;5022191;28;20014;-88
2021/11/07 12:47:06;;;;;;;8.63;1.05;;;;;;;;;;5031246;28;20096;-90
2021/11/07 12:49:33;;;;;;;5.30;0.95;;;;;;;;;;5031838;28;20025;-90
2021/11/07 12:52:07;;;;;;;5.28;0.73;;;;;;;;;;5064296;28;20021;-88
2021/11/07 12:54:35;;;;;;;2.65;1.15;;;;;;;;;;5032785;28;20100;-90
2021/11/07 12:57:07;;;;;;;8.60;0.98;;;;;;;;;;5033518;28;20071;-89
2021/11/07 12:59:32;;;;;;;;;;;;;;;;;;5035451;28;20431;-89
2021/11/07 13:02:10;;;;;;;13.77;1.80;;;;;;;;;;5050710;28;19966;-88
2021/11/07 13:04:43;;;;;;;12.07;1.80;;;;;;;;;;5030392;28;20064;-89
2021/11/07 13:07:17;;;;;;;18.83;2.28;;;;;;;;;;5028277;28;20030;-90
2021/11/07 13:09:44;;;;;;;17.70;2.13;;;;;;;;;;5036495;28;20018;-90
2021/11/07 13:12:25;;;;;;;20.63;2.45;;;;;;;;;;5068101;28;20025;-89
2021/11/07 13:17:45;;;;;;;9.20;1.77;;;;;;;;;;5036611;28;20017;-89
2021/11/07 13:20:37;;;;;;;19.15;2.53;;;;;;;;;;5034574;28;20596;-89
2021/11/07 13:23:09;;;;;;;16.10;1.90;;;;;;;;;;5035369;28;20026;-88
2021/11/07 13:26:30;;;;;;;21.92;2.55;;;;;;;;;;5035040;28;20017;-89
2021/11/07 13:31:18;;;;;;;13.15;1.65;;;;;;;;;;5036212;28;20026;-89
2021/11/07 13:33:44;;;;;;;15.52;2.03;;;;;;;;;;5034784;28;20461;-89
2021/11/07 13:36:11;;;;;;;22.42;2.88;;;;;;;;;;5033932;28;20022;-89
2021/11/07 13:38:44;;;;;;;25.27;1.75;;;;;;;;;;5030488;28;20013;-89
2021/11/07 13:41:23;;;;;;;4.68;1.40;;;;;;;;;;5025618;28;20017;-89
2021/11/07 13:43:56;;;;;;;14.73;2.17;;;;;;;;;;5028453;28;20022;-89
2021/11/07 13:46:21;;;;;;;17.05;1.80;;;;;;;;;;5033799;28;20469;-89
2021/11/07 13:49:00;;;;;;;11.32;1.88;;;;;;;;;;5033827;28;20024;-89
2021/11/07 13:51:25;;;;;;;19.23;2.55;;;;;;;;;;5060932;28;20029;-88
2021/11/07 13:53:57;;;;;;;19.17;1.83;;;;;;;;;;5034765;28;20055;-89
2021/11/07 13:56:22;;;;;;;13.77;1.83;;;;;;;;;;5049835;28;20037;-89
2021/11/07 13:58:48;;;;;;;15.23;1.90;;;;;;;;;;5066630;28;20401;-88
2021/11/07 14:01:15;;;;;;;17.98;1.60;;;;;;;;;;5066473;28;20425;-87
2021/11/07 14:03:43;;;;;;;14.38;1.75;;;;;;;;;;5034567;28;20508;-87
2021/11/07 14:06:19;;;;;;;20.63;2.75;;;;;;;;;;5066518;28;20444;-89
2021/11/07 14:08:45;;;;;;;22.50;2.72;;;;;;;;;;5032704;28;20068;-88
2021/11/07 14:11:12;;;;;;;20.95;3.10;;;;;;;;;;5029702;28;20061;-87
2021/11/07 14:13:44;;;;;;;8.98;1.80;;;;;;;;;;5066328;28;20078;-88
2021/11/07 14:16:10;;;;;;;19.95;2.58;;;;;;;;;;5032863;28;20025;-88
2021/11/07 14:18:40;;;;;;;13.57;2.35;;;;;;;;;;5065500;28;20021;-88
2021/11/07 14:21:05;;;;;;;18.30;1.90;;;;;;;;;;5032681;28;20034;-87
2021/11/07 14:23:45;;;;;;;25.35;2.45;;;;;;;;;;5066120;28;20018;-87
2021/11/07 14:26:37;;;;;;;24.13;2.58;;;;;;;;;;5033019;28;20102;-87
2021/11/07 14:29:55;;;;;;;18.73;2.80;;;;;;;;;;5034214;28;20025;-87
2021/11/07 14:32:16;;;;;;;22.50;2.40;;;;;;;;;;5020352;28;20441;-87
2021/11/07 14:34:59;;;;;;;19.35;2.08;;;;;;;;;;5033923;28;20159;-87
2021/11/07 14:38:02;;;;;;;23.75;1.52;;;;;;;;;;5031697;28;20025;-87
2021/11/07 14:40:22;;;;;;;15.80;1.50;;;;;;;;;;5030808;28;20037;-88
2021/11/07 14:43:16;;;;;;;14.60;1.92;;;;;;;;;;5063719;28;20040;-88
2021/11/07 14:55:57;;;;;;;12.13;1.90;;;;;;;;;;5028116;28;20022;-87
2021/11/07 15:09:04;;;;;;;19.95;2.50;;;;;;;;;;5033874;28;20029;-88
2021/11/07 15:11:56;;;;;;;19.50;2.78;;;;;;;;;;5065312;28;20079;-87
2021/11/07 15:14:35;;;;;;;20.23;2.28;;;;;;;;;;5032286;28;20436;-87
2021/11/07 15:17:14;;;;;;;19.60;1.95;;;;;;;;;;5064345;28;20033;-87
2021/11/07 15:19:53;;;;;;;17.02;2.00;;;;;;;;;;5030948;28;20096;-87
2021/11/07 15:22:23;;;;;;;39.25;3.17;;;;;;;;;;5031516;28;20442;-87
2021/11/07 15:24:53;;;;;;;15.15;2.10;;;;;;;;;;5031136;28;20064;-87
2021/11/07 15:27:26;;;;;;;10.43;1.77;;;;;;;;;;5032024;28;20049;-87
2021/11/07 15:32:23;;;;;;;26.63;2.38;;;;;;;;;;5033180;28;20061;-87
2021/11/07 15:34:49;;;;;;;16.73;1.90;;;;;;;;;;5031539;28;20543;-86
2021/11/07 15:37:25;;;;;;;16.50;1.67;;;;;;;;;;5031687;28;20041;-86
2021/11/07 15:39:54;;;;;;;21.30;2.28;;;;;;;;;;5031629;28;20508;-86
2021/11/07 15:42:23;;;;;;;10.15;1.98;;;;;;;;;;5026832;28;20021;-86
2021/11/07 15:44:54;;;;;;;17.90;2.95;;;;;;;;;;5032787;28;20018;-85
2021/11/07 15:47:22;;;;;;;18.08;2.30;;;;;;;;;;5030738;28;20138;-85
2021/11/07 15:50:02;;;;;;;14.68;2.45;;;;;;;;;;5030658;28;20018;-86
2021/11/07 15:55:08;;;;;;;26.00;2.22;;;;;;;;;;5033235;28;20083;-85
2021/11/07 15:57:54;;;;;;;16.33;2.05;;;;;;;;;;5031708;28;20039;-84
2021/11/07 16:01:06;;;;;;;20.60;2.22;;;;;;;;;;5027388;28;20025;-85
2021/11/07 16:08:20;;;;;;;20.88;1.88;;;;;;;;;;5037474;28;20109;-84
2021/11/07 16:18:38;;;;;;;26.85;2.63;;;;;;;;;;5032988;28;20025;-85
2021/11/07 16:21:06;;;;;;;18.20;2.08;;;;;;;;;;5030496;28;20030;-85
2021/11/07 16:23:31;;;;;;;20.40;2.47;;;;;;;;;;5031088;28;20018;-85
2021/11/07 16:25:59;;;;;;;30.80;2.97;;;;;;;;;;5064375;28;20021;-85
2021/11/07 16:28:25;;;;;;;17.73;2.22;;;;;;;;;;5031014;28;20033;-85
2021/11/07 16:30:59;;;;;;;25.75;2.85;;;;;;;;;;5034365;28;20009;-85
2021/11/07 16:33:25;;;;;;;17.95;2.63;;;;;;;;;;5034860;28;20507;-85
2021/11/07 16:36:06;;;;;;;20.15;2.03;;;;;;;;;;5068531;28;20017;-85
2021/11/07 16:43:54;;;;;;;17.88;2.30;;;;;;;;;;5036597;28;20045;-85
2021/11/07 16:46:22;;;;;;;24.80;2.25;;;;;;;;;;5068102;28;20018;-85
2021/11/07 16:48:49;;;;;;;16.83;2.38;;;;;;;;;;5034816;28;20022;-85
2021/11/07 16:51:29;;;;;;;19.77;2.38;;;;;;;;;;5067812;28;20032;-85
2021/11/07 16:54:10;;;;;;;24.10;2.50;;;;;;;;;;5034679;28;20464;-85
2021/11/07 16:56:36;;;;;;;20.52;2.42;;;;;;;;;;5035912;28;20067;-85
2021/11/07 16:59:15;;;;;;;19.13;2.55;;;;;;;;;;5034518;28;20041;-85
2021/11/07 17:09:46;;;;;;;19.10;2.05;;;;;;;;;;5029310;28;20028;-85
2021/11/07 17:12:20;;;;;;;15.35;2.22;;;;;;;;;;5034122;28;20033;-85
2021/11/07 17:14:50;;;;;;;24.10;3.17;;;;;;;;;;5067913;28;20068;-85
2021/11/07 17:17:23;;;;;;;20.33;3.05;;;;;;;;;;5035658;28;20029;-85
2021/11/07 17:20:11;;;;;;;15.70;2.70;;;;;;;;;;5028660;28;20461;-85
2021/11/07 17:25:08;;;;;;;29.27;4.00;;;;;;;;;;5035523;28;20735;-85
2021/11/07 17:27:41;;;;;;;16.98;2.72;;;;;;;;;;5034076;28;20163;-85
2021/11/07 17:30:14;;;;;;;19.42;4.13;;;;;;;;;;5067392;28;20034;-85
2021/11/07 17:32:45;;;;;;;28.20;3.25;;;;;;;;;;5059905;28;20029;-85
2021/11/07 17:35:19;;;;;;;26.88;3.17;;;;;;;;;;5067460;28;20457;-85
2021/11/07 17:56:33;;;;;;;31.02;4.38;;;;;;;;;;5035101;28;20503;-85
2021/11/07 17:58:59;;;;;;;28.65;4.22;;;;;;;;;;5033430;28;20026;-85
2021/11/07 18:01:24;;;;;;;26.42;4.00;;;;;;;;;;5066860;28;20029;-85
2021/11/07 18:03:51;;;;;;;32.72;4.93;;;;;;;;;;5033358;28;20024;-85
2021/11/07 18:06:17;;;;;;;33.28;4.10;;;;;;;;;;5066842;28;20072;-85